WetterOnline ( https://www.wetteronline.de )

Wetter aktuell Lutherstadt Wittenberg

Aktuelles Wetter: Wittenberg (106m)

6-stündlich | Neueste Meldungen
Ortszeit Temperatur Wetter
Di, 05.07. 14:00 23.8° C leicht bewölkt
Di, 05.07. 8:00 18.1° C wolkenlos
Di, 05.07. 2:00 13.3° C wolkenlos
Mo, 04.07. 20:00 23.9° C wolkenlos
Mo, 04.07. 14:00 22.6° C wolkig
Mo, 04.07. 8:00 18.4° C wolkenlos
Mo, 04.07. 2:00 20.6° C leicht bewölkt
So, 03.07. 20:00 29.9° C wolkenlos
Ortszeit Temperatur Wetter
Di, 05.07. 17:30 24.1° C leicht bewölkt
Di, 05.07. 17:20 24.1° C leicht bewölkt
Di, 05.07. 17:10 24.8° C leicht bewölkt
Di, 05.07. 17:00 24.3° C wolkig
Di, 05.07. 16:50 24.3° C wolkig
Di, 05.07. 16:40 24.7° C bewölkt
Di, 05.07. 16:30 24.1° C bewölkt
Di, 05.07. 16:00 23.7° C leicht bewölkt
Di, 05.07. 15:30 24.7° C leicht bewölkt
Di, 05.07. 15:00 23.8° C bedeckt
Di, 05.07. 14:30 24.2° C bewölkt
Ortszeit Relative Feuchte Sichtweite
Di, 05.07. 14:00 40% >70 km
Di, 05.07. 8:00 56% 45 km
Di, 05.07. 2:00 71% >70 km
Mo, 04.07. 20:00 36% >70 km
Mo, 04.07. 14:00 45% >70 km
Mo, 04.07. 8:00 69% 65 km
Mo, 04.07. 2:00 57% >70 km
So, 03.07. 20:00 28% >70 km
Ortszeit Relative Feuchte Sichtweite
Di, 05.07. 17:30 39% >70 km
Di, 05.07. 17:20 39% -
Di, 05.07. 17:10 37% -
Di, 05.07. 17:00 39% >70 km
Di, 05.07. 16:50 39% -
Di, 05.07. 16:40 38% -
Di, 05.07. 16:30 39% >70 km
Di, 05.07. 16:00 39% 65 km
Di, 05.07. 15:30 37% >70 km
Di, 05.07. 15:00 39% >70 km
Di, 05.07. 14:30 37% >70 km
Ortszeit Niederschlagsmenge Niederschlagsart
Di, 05.07. 14:00 0.0 l/m2 in 6 Std. -
Di, 05.07. 8:00 0.0 l/m2 in 12 Std. -
Di, 05.07. 2:00 0.0 l/m2 in 6 Std. -
Mo, 04.07. 20:00 0.0 l/m2 in 12 Std. -
Mo, 04.07. 14:00 0.0 l/m2 in 6 Std. -
Mo, 04.07. 8:00 0.0 l/m2 in 12 Std. -
Mo, 04.07. 2:00 0.0 l/m2 in 6 Std. -
So, 03.07. 20:00 0.0 l/m2 in 12 Std. -
Ortszeit Niederschlagsmenge Niederschlagsart
Di, 05.07. 17:30 0.0 l/m2 in 1 Std. -
Di, 05.07. 17:20 keine Meldung -
Di, 05.07. 17:10 keine Meldung -
Di, 05.07. 17:00 0.0 l/m2 in 1 Std. -
Di, 05.07. 16:50 keine Meldung -
Di, 05.07. 16:40 keine Meldung -
Di, 05.07. 16:30 0.0 l/m2 in 1 Std. -
Di, 05.07. 16:00 0.0 l/m2 in 1 Std. -
Di, 05.07. 15:30 0.0 l/m2 in 1 Std. -
Di, 05.07. 15:00 0.0 l/m2 in 1 Std. -
Di, 05.07. 14:30 0.0 l/m2 in 1 Std. -
Ortszeit Stärke Spitze Richtung
km/h Bft. km/h Grad Sektor
Di, 05.07. 14:00 13 3 26 350° N
Di, 05.07. 8:00 15 3 26 360° N
Di, 05.07. 2:00 7 2 22 330° NW
Mo, 04.07. 20:00 11 2 25 320° NW
Mo, 04.07. 14:00 7 2 32 320° NW
Mo, 04.07. 8:00 11 2 30 310° NW
Mo, 04.07. 2:00 17 3 44 340° N
So, 03.07. 20:00 6 1 28 280° W
Ortszeit Stärke Spitze Richtung
km/h Bft. km/h Grad Sektor
Di, 05.07. 17:30 14 3 29 300° NW
Di, 05.07. 17:20 14 3 - 300° NW
Di, 05.07. 17:10 15 3 - 300° NW
Di, 05.07. 17:00 14 3 29 310° NW
Di, 05.07. 16:50 14 3 - 310° NW
Di, 05.07. 16:40 17 3 - 320° NW
Di, 05.07. 16:30 7 2 22 310° NW
Di, 05.07. 16:00 14 3 29 290° W
Di, 05.07. 15:30 11 2 22 290° W
Di, 05.07. 15:00 9 2 20 280° W
Di, 05.07. 14:30 9 2 20 260° W
Ortszeit Untergrenze Bedeckung Gattung
total tief tief mittel hoch
Di, 05.07. 14:00 1800 m 3/8 3/8 - - -
Di, 05.07. 8:00 - 0/8 0/8 - - -
Di, 05.07. 2:00 - 0/8 0/8 - - -
Mo, 04.07. 20:00 - 0/8 0/8 - - -
Mo, 04.07. 14:00 1500 m 6/8 6/8 - - -
Mo, 04.07. 8:00 - 0/8 0/8 - - -
Mo, 04.07. 2:00 2400 m 6/8 1/8 - - -
So, 03.07. 20:00 - 0/8 0/8 - - -
Ortszeit Bedeckungsgrad in Achtel und Wolkenuntergrenze
Di, 05.07. 17:30 1(1800m) 4(2700m)
Di, 05.07. 17:20 1(1800m) 4(2700m)
Di, 05.07. 17:10 4
Di, 05.07. 17:00 3(1800m) 6(2100m) 6(2700m)
Di, 05.07. 16:50 3(1800m) 6(2100m) 6(2700m)
Di, 05.07. 16:40 7
Di, 05.07. 16:30 6(2100m) 7(2400m)
Di, 05.07. 16:00 2(1800m) 4(2100m)
Di, 05.07. 15:30 2(2400m)
Di, 05.07. 15:00 2(1800m) 8(2100m)
Di, 05.07. 14:30 5(1800m) 7(2100m)
Ortszeit Luftdruck NN (hPa) Tendenz (hPa in 3 Std.)
Di, 05.07. 14:00 1020 - 0,5
Di, 05.07. 8:00 1021 + 1,4
Di, 05.07. 2:00 1019 + 0,3
Mo, 04.07. 20:00 1017 - 0,6
Mo, 04.07. 14:00 1019 - 0,3
Mo, 04.07. 8:00 1019 + 1,6
Mo, 04.07. 2:00 1016 + 1,5
So, 03.07. 20:00 1014 - 0,9
Ortszeit Luftdruck NN (hPa) Tendenz (hPa in 3 Std.)
Di, 05.07. 17:30 1019 - 0,6
Di, 05.07. 17:20 1019 keine Meldung
Di, 05.07. 17:10 1019 keine Meldung
Di, 05.07. 17:00 1019 - 0,8
Di, 05.07. 16:50 1019 keine Meldung
Di, 05.07. 16:40 1019 keine Meldung
Di, 05.07. 16:30 1019 - 0,8
Di, 05.07. 16:00 1020 - 0,8
Di, 05.07. 15:30 1020 - 0,8
Di, 05.07. 15:00 1020 - 0,6
Di, 05.07. 14:30 1020 - 0,6
Ortszeit Schneehöhe (cm)
Di, 05.07. 14:00 0
Di, 05.07. 8:00 0
Di, 05.07. 2:00 0
Mo, 04.07. 20:00 0
Mo, 04.07. 14:00 0
Mo, 04.07. 8:00 0
Mo, 04.07. 2:00 0
So, 03.07. 20:00 0
Ortszeit Schneehöhe (cm)
Di, 05.07. 17:30 0
Di, 05.07. 17:20 0
Di, 05.07. 17:10 0
Di, 05.07. 17:00 0
Di, 05.07. 16:50 0
Di, 05.07. 16:40 0
Di, 05.07. 16:30 0
Di, 05.07. 16:00 0
Di, 05.07. 15:30 0
Di, 05.07. 15:00 0
Di, 05.07. 14:30 0
Link zu dieser Seite / Seite empfehlen

Das Wetter in ...